Holmfirth, United Kingdom
Current Conditions -  °F | °C
As of 3:50 AM on Friday 28 Nov 2014 (Local Time) from EGNM Reporting Station
Moderate Fog Moderate Fog  
Wind Chill: 40°   Ceiling: Unl
Heat Index: 43°   Visibility: 0.15mi
Dew Point: 43°   Wind: 5mph
Humidity: 100%   Direction: 40°NE
Pressure: 29.65"   Gusts: NA
Location:  53.57°N, 1.79°W
Report Text: EGNM 280350Z 04004KT 010V070 0250 FG VV/// 06/06 Q1004
Loading
Personal Weather Stations






























Interactive Weather Map New forecast layout! Learn more

10-Day Weather Forecast

Advertisements
Track Severe Weather on mobile